createdAt,value
2017-10-24T00:00:05.199Z,101666.55
2017-10-24T00:02:32.852Z,101664.11
2017-10-24T00:05:00.564Z,101669.41
2017-10-24T00:07:28.179Z,101659.84
2017-10-24T00:09:55.783Z,101654.69
2017-10-24T00:12:23.448Z,101667.22
2017-10-24T00:14:51.110Z,101673.75
2017-10-24T00:17:18.743Z,101668.38
2017-10-24T00:19:46.352Z,101668.51
2017-10-24T00:22:14.000Z,101666.20
2017-10-24T00:24:41.606Z,101662.33
2017-10-24T00:27:09.229Z,101669.50
2017-10-24T00:29:36.858Z,101671.52
2017-10-24T00:32:04.493Z,101670.05
2017-10-24T00:34:32.088Z,101663.46
2017-10-24T00:36:59.739Z,101666.86
2017-10-24T00:39:27.507Z,101669.95
2017-10-24T00:41:55.110Z,101668.14
2017-10-24T00:44:22.723Z,101668.94
2017-10-24T00:46:50.323Z,101670.83
2017-10-24T00:49:17.966Z,101674.79
2017-10-24T00:51:45.621Z,101671.17
2017-10-24T00:54:13.243Z,101672.77
2017-10-24T00:56:40.840Z,101664.04
2017-10-24T00:59:08.468Z,101662.57
2017-10-24T01:01:36.066Z,101665.92
2017-10-24T01:04:03.784Z,101664.71
2017-10-24T01:06:31.366Z,101659.88
2017-10-24T01:08:59.011Z,101656.97
2017-10-24T01:11:26.618Z,101652.15
2017-10-24T01:13:54.280Z,101645.39
2017-10-24T01:16:21.890Z,101645.77
2017-10-24T01:18:49.511Z,101643.63
2017-10-24T01:21:17.108Z,101645.74
2017-10-24T01:23:44.722Z,101649.01
2017-10-24T01:26:12.505Z,101648.88
2017-10-24T01:28:40.111Z,101649.68
2017-10-24T01:31:07.757Z,101655.62
2017-10-24T01:33:35.371Z,101658.28
2017-10-24T01:36:02.991Z,101661.00
2017-10-24T01:38:30.577Z,101654.42
2017-10-24T01:40:58.211Z,101658.99
2017-10-24T01:43:25.815Z,101651.00
2017-10-24T01:45:53.459Z,101651.33
2017-10-24T01:48:21.054Z,101645.31
2017-10-24T01:50:48.685Z,101648.89
2017-10-24T01:53:16.275Z,101642.68
2017-10-24T01:55:43.901Z,101649.94
2017-10-24T01:58:11.566Z,101658.39
2017-10-24T02:00:39.183Z,101668.21
2017-10-24T02:03:06.806Z,101665.02
2017-10-24T02:05:34.436Z,101665.72
2017-10-24T02:08:02.015Z,101656.98
2017-10-24T02:10:29.641Z,101661.63
2017-10-24T02:12:57.232Z,101655.71
2017-10-24T02:15:24.848Z,101658.11
2017-10-24T02:17:52.436Z,101658.30
2017-10-24T02:20:20.947Z,101661.53
2017-10-24T02:22:48.522Z,101662.53
2017-10-24T02:25:16.154Z,101663.08
2017-10-24T02:27:43.747Z,101664.09
2017-10-24T02:30:11.384Z,101657.28
2017-10-24T02:32:39.622Z,101658.11
2017-10-24T02:35:07.238Z,101657.28
2017-10-24T02:37:34.935Z,101655.07
2017-10-24T02:40:02.562Z,101660.06
2017-10-24T02:42:30.219Z,101662.72
2017-10-24T02:44:57.846Z,101663.27
2017-10-24T02:47:25.452Z,101664.31
2017-10-24T02:49:53.098Z,101658.40
2017-10-24T02:52:20.684Z,101658.44
2017-10-24T02:54:48.321Z,101652.22
2017-10-24T02:57:15.923Z,101653.73
2017-10-24T02:59:43.562Z,101653.34
2017-10-24T03:02:11.180Z,101650.23
2017-10-24T03:04:38.796Z,101656.38
2017-10-24T03:07:06.463Z,101655.17
2017-10-24T03:09:34.122Z,101650.97
2017-10-24T03:12:01.714Z,101649.41
2017-10-24T03:14:29.339Z,101651.42
2017-10-24T03:16:56.958Z,101652.89
2017-10-24T03:19:24.958Z,101657.73
2017-10-24T03:21:52.540Z,101653.79
2017-10-24T03:24:20.175Z,101646.17
2017-10-24T03:26:47.772Z,101646.05
2017-10-24T03:29:15.395Z,101653.83
2017-10-24T03:31:42.995Z,101648.55
2017-10-24T03:34:10.659Z,101651.48
2017-10-24T03:36:38.258Z,101660.51
2017-10-24T03:39:05.901Z,101657.82
2017-10-24T03:41:33.603Z,101655.77
2017-10-24T03:44:01.238Z,101655.23
2017-10-24T03:46:28.838Z,101653.88
2017-10-24T03:48:56.463Z,101654.78
2017-10-24T03:51:24.097Z,101654.20
2017-10-24T03:53:51.684Z,101654.58
2017-10-24T03:56:19.302Z,101644.72
2017-10-24T03:58:46.915Z,101647.13
2017-10-24T04:01:14.626Z,101638.52
2017-10-24T04:03:42.612Z,101642.28
2017-10-24T04:06:10.231Z,101642.89
2017-10-24T04:08:37.823Z,101641.39
2017-10-24T04:11:05.428Z,101642.89
2017-10-24T04:13:33.039Z,101640.04
2017-10-24T04:16:00.699Z,101633.45
2017-10-24T04:18:28.327Z,101634.89
2017-10-24T04:20:55.954Z,101638.91
2017-10-24T04:23:23.553Z,101637.28
2017-10-24T04:25:51.238Z,101639.37
2017-10-24T04:28:19.115Z,101640.63
2017-10-24T04:30:46.712Z,101638.34
2017-10-24T04:33:15.531Z,101638.22
2017-10-24T04:35:43.134Z,101634.83
2017-10-24T04:38:10.767Z,101638.31
2017-10-24T04:40:38.387Z,101638.60
2017-10-24T04:43:06.086Z,101642.77
2017-10-24T04:45:33.687Z,101644.63
2017-10-24T04:48:01.326Z,101655.13
2017-10-24T04:50:28.958Z,101649.56
2017-10-24T04:52:57.250Z,101650.87
2017-10-24T04:55:24.875Z,101659.03
2017-10-24T04:57:52.527Z,101657.69
2017-10-24T05:00:20.148Z,101650.39
2017-10-24T05:02:47.762Z,101662.52
2017-10-24T05:05:15.429Z,101658.17
2017-10-24T05:07:43.031Z,101657.08
2017-10-24T05:10:10.680Z,101657.88
2017-10-24T05:12:38.273Z,101655.32
2017-10-24T05:15:06.011Z,101652.85
2017-10-24T05:17:33.627Z,101650.71
2017-10-24T05:20:01.307Z,101646.64
2017-10-24T05:22:28.904Z,101641.59
2017-10-24T05:24:56.535Z,101630.02
2017-10-24T05:27:24.158Z,101628.57
2017-10-24T05:29:51.814Z,101628.95
2017-10-24T05:32:19.398Z,101626.39
2017-10-24T05:34:47.042Z,101637.56
2017-10-24T05:37:14.643Z,101633.56
2017-10-24T05:39:42.283Z,101638.65
2017-10-24T05:42:09.883Z,101636.38
2017-10-24T05:44:37.593Z,101638.23
2017-10-24T05:47:05.228Z,101633.15
2017-10-24T05:49:32.920Z,101632.60
2017-10-24T05:52:00.523Z,101620.70
2017-10-24T05:54:28.167Z,101621.62
2017-10-24T05:56:55.792Z,101630.49
2017-10-24T05:59:23.429Z,101622.72
2017-10-24T06:01:51.052Z,101629.69
2017-10-24T06:04:18.681Z,101634.43
2017-10-24T06:06:46.275Z,101630.14
2017-10-24T06:09:13.953Z,101626.94
2017-10-24T06:11:41.554Z,101629.66
2017-10-24T06:14:09.188Z,101632.92
2017-10-24T06:16:36.803Z,101633.47
2017-10-24T06:19:04.430Z,101638.94
2017-10-24T06:21:32.064Z,101641.27
2017-10-24T06:23:59.703Z,101648.31
2017-10-24T06:26:27.306Z,101652.98
2017-10-24T06:28:54.938Z,101653.81
2017-10-24T06:31:22.661Z,101656.53
2017-10-24T06:33:50.247Z,101662.17
2017-10-24T06:36:17.882Z,101665.02
2017-10-24T06:38:45.498Z,101663.70
2017-10-24T06:41:13.123Z,101668.13
2017-10-24T06:43:40.707Z,101679.71
2017-10-24T06:46:08.441Z,101681.19
2017-10-24T06:48:36.030Z,101692.20
2017-10-24T06:51:03.663Z,101696.30
2017-10-24T06:53:31.262Z,101691.62
2017-10-24T06:55:58.891Z,101702.13
2017-10-24T06:58:26.496Z,101710.32
2017-10-24T07:00:54.138Z,101708.63
2017-10-24T07:03:21.746Z,101711.85
2017-10-24T07:05:49.402Z,101703.14
2017-10-24T07:08:16.991Z,101692.53
2017-10-24T07:10:44.890Z,101704.92
2017-10-24T07:13:12.500Z,101709.35
2017-10-24T07:15:40.134Z,101707.98
2017-10-24T07:18:07.791Z,101697.06
2017-10-24T07:20:35.402Z,101701.22
2017-10-24T07:23:03.042Z,101696.07
2017-10-24T07:25:30.654Z,101705.74
2017-10-24T07:27:58.292Z,101703.50
2017-10-24T07:30:25.928Z,101704.30
2017-10-24T07:32:53.594Z,101707.15
2017-10-24T07:35:21.211Z,101712.02
2017-10-24T07:37:48.814Z,101712.81
2017-10-24T07:40:16.449Z,101708.14
2017-10-24T07:42:44.050Z,101711.50
2017-10-24T07:45:12.535Z,101708.32
2017-10-24T07:47:40.136Z,101708.77
2017-10-24T07:50:07.987Z,101703.25
2017-10-24T07:52:35.603Z,101698.29
2017-10-24T07:55:03.243Z,101696.30
2017-10-24T07:57:30.862Z,101702.61
2017-10-24T07:59:58.495Z,101710.27
2017-10-24T08:02:26.116Z,101705.30
2017-10-24T08:04:53.766Z,101706.95
2017-10-24T08:07:21.367Z,101705.51
2017-10-24T08:09:48.964Z,101717.13
2017-10-24T08:12:16.656Z,101711.23
2017-10-24T08:14:44.252Z,101711.31
2017-10-24T08:17:11.886Z,101712.42
2017-10-24T08:19:39.484Z,101705.77
2017-10-24T08:22:07.104Z,101709.73
2017-10-24T08:24:34.728Z,101725.13
2017-10-24T08:27:02.354Z,101719.39
2017-10-24T08:29:29.956Z,101721.33
2017-10-24T08:31:57.582Z,101712.62
2017-10-24T08:34:25.890Z,101707.83
2017-10-24T08:36:53.538Z,101701.13
2017-10-24T08:39:21.142Z,101698.09
2017-10-24T08:41:48.786Z,101699.47
2017-10-24T08:44:16.408Z,101702.45
2017-10-24T08:46:45.016Z,101703.38
2017-10-24T08:49:12.682Z,101701.65
2017-10-24T08:51:40.374Z,101697.08
2017-10-24T08:54:07.987Z,101694.65
2017-10-24T08:56:35.604Z,101699.24
2017-10-24T08:59:03.212Z,101699.13
2017-10-24T09:01:31.642Z,101705.47
2017-10-24T09:03:59.263Z,101709.27
2017-10-24T09:06:42.594Z,101707.02
2017-10-24T09:09:43.651Z,101706.33
2017-10-24T09:12:11.291Z,101712.57
2017-10-24T09:14:38.881Z,101704.09
2017-10-24T09:17:43.705Z,101707.14
2017-10-24T09:20:11.314Z,101704.72
2017-10-24T09:22:39.676Z,101693.16
2017-10-24T09:25:07.270Z,101686.03
2017-10-24T09:27:34.939Z,101692.66
2017-10-24T09:30:02.540Z,101686.05
2017-10-24T09:32:45.946Z,101688.91
2017-10-24T09:35:13.540Z,101680.94
2017-10-24T09:37:41.166Z,101683.41
2017-10-24T09:40:08.795Z,101686.09
2017-10-24T09:42:36.461Z,101687.31
2017-10-24T09:45:04.059Z,101688.53
2017-10-24T09:47:31.683Z,101693.00
2017-10-24T09:49:59.326Z,101683.14
2017-10-24T09:52:26.970Z,101687.47
2017-10-24T09:54:54.556Z,101690.04
2017-10-24T09:57:22.168Z,101688.02
2017-10-24T09:59:49.828Z,101697.61
2017-10-24T10:02:17.419Z,101699.63
2017-10-24T10:04:45.060Z,101699.92
2017-10-24T10:07:12.645Z,101704.23
2017-10-24T10:09:40.290Z,101696.00
2017-10-24T10:12:09.612Z,101700.06
2017-10-24T10:14:37.248Z,101700.34
2017-10-24T10:17:04.834Z,101685.49
2017-10-24T10:19:32.478Z,101678.46
2017-10-24T10:22:00.067Z,101679.68
2017-10-24T10:24:39.513Z,101672.92
2017-10-24T10:27:07.145Z,101680.34
2017-10-24T10:29:34.782Z,101685.88
2017-10-24T10:32:02.399Z,101680.75
2017-10-24T10:34:30.059Z,101681.17
2017-10-24T10:36:57.715Z,101677.22
2017-10-24T10:39:25.319Z,101675.48
2017-10-24T10:41:52.971Z,101674.94
2017-10-24T10:44:20.564Z,101670.74
2017-10-24T10:46:48.197Z,101671.95
2017-10-24T10:49:15.794Z,101667.20
2017-10-24T10:51:43.434Z,101673.16
2017-10-24T10:54:11.057Z,101665.57
2017-10-24T10:56:38.702Z,101658.53
2017-10-24T10:59:06.291Z,101657.03
2017-10-24T11:01:33.886Z,101654.73
2017-10-24T11:04:01.546Z,101656.19
2017-10-24T11:06:29.191Z,101655.38
2017-10-24T11:08:56.807Z,101657.52
2017-10-24T11:11:24.402Z,101653.04
2017-10-24T11:13:52.038Z,101652.59
2017-10-24T11:16:19.606Z,101652.83
2017-10-24T11:18:47.231Z,101650.12
2017-10-24T11:21:14.855Z,101654.17
2017-10-24T11:23:42.483Z,101654.22
2017-10-24T11:26:10.097Z,101649.32
2017-10-24T11:28:37.740Z,101647.81
2017-10-24T11:31:05.327Z,101644.84
2017-10-24T11:33:32.987Z,101643.86
2017-10-24T11:36:00.596Z,101640.05
2017-10-24T11:38:28.226Z,101637.61
2017-10-24T11:40:55.814Z,101635.70
2017-10-24T11:43:23.454Z,101628.42
2017-10-24T11:45:51.050Z,101628.81
2017-10-24T11:48:18.670Z,101631.44
2017-10-24T11:50:46.260Z,101622.89
2017-10-24T11:53:13.890Z,101620.45
2017-10-24T11:55:41.527Z,101623.67
2017-10-24T11:58:09.146Z,101631.38
2017-10-24T12:00:36.746Z,101624.95
2017-10-24T12:03:04.388Z,101624.41
2017-10-24T12:05:31.975Z,101626.45
2017-10-24T12:07:59.603Z,101622.67
2017-10-24T12:10:27.235Z,101626.18
2017-10-24T12:12:54.918Z,101631.08
2017-10-24T12:15:22.511Z,101630.82
2017-10-24T12:17:50.234Z,101640.44
2017-10-24T12:20:17.836Z,101634.11
2017-10-24T12:22:45.484Z,101634.03
2017-10-24T12:25:13.074Z,101625.94
2017-10-24T12:27:40.686Z,101623.94
2017-10-24T12:30:08.316Z,101620.86
2017-10-24T12:32:35.922Z,101620.17
2017-10-24T12:35:03.551Z,101612.20
2017-10-24T12:37:31.178Z,101611.66
2017-10-24T12:39:58.847Z,101607.35
2017-10-24T12:42:29.887Z,101602.46
2017-10-24T12:45:10.114Z,101605.99
2017-10-24T12:47:37.763Z,101608.14
2017-10-24T12:50:05.403Z,101601.38
2017-10-24T12:52:33.113Z,101605.67
2017-10-24T12:55:00.730Z,101602.58
2017-10-24T12:57:35.797Z,101607.44
2017-10-24T13:00:04.351Z,101597.97
2017-10-24T13:02:31.947Z,101598.52
2017-10-24T13:04:59.567Z,101600.54
2017-10-24T13:07:27.166Z,101610.55
2017-10-24T13:09:54.914Z,101608.92
2017-10-24T13:12:22.507Z,101610.28
2017-10-24T13:14:50.140Z,101608.13
2017-10-24T13:17:17.800Z,101606.79
2017-10-24T13:19:45.375Z,101609.78
2017-10-24T13:22:13.025Z,101608.99
2017-10-24T13:24:40.622Z,101612.25
2017-10-24T13:27:08.231Z,101613.06
2017-10-24T13:29:35.823Z,101611.47
2017-10-24T13:32:03.474Z,101607.41
2017-10-24T13:34:31.186Z,101615.38
2017-10-24T13:36:58.804Z,101612.81
2017-10-24T13:39:26.462Z,101611.84
2017-10-24T13:41:54.055Z,101611.19
2017-10-24T13:44:21.648Z,101613.75
2017-10-24T13:46:49.278Z,101604.71
2017-10-24T13:49:16.935Z,101604.98
2017-10-24T13:51:44.553Z,101611.19
2017-10-24T13:54:12.177Z,101610.53
2017-10-24T13:56:39.806Z,101609.84
2017-10-24T13:59:07.442Z,101609.31
2017-10-24T14:01:35.111Z,101615.92
2017-10-24T14:04:02.706Z,101616.86
2017-10-24T14:06:35.978Z,101629.57
2017-10-24T14:09:09.050Z,101619.04
2017-10-24T14:11:36.701Z,101620.38
2017-10-24T14:14:04.302Z,101621.59
2017-10-24T14:16:31.899Z,101620.11
2017-10-24T14:18:59.574Z,101618.89
2017-10-24T14:21:27.199Z,101613.08
2017-10-24T14:23:54.794Z,101614.98
2017-10-24T14:26:22.386Z,101615.64
2017-10-24T14:28:50.025Z,101615.12
2017-10-24T14:31:17.619Z,101614.70
2017-10-24T14:33:45.271Z,101604.19
2017-10-24T14:36:12.872Z,101609.17
2017-10-24T14:38:40.519Z,101611.32
2017-10-24T14:41:08.147Z,101611.88
2017-10-24T14:43:35.781Z,101610.94
2017-10-24T14:46:03.385Z,101611.59
2017-10-24T14:48:31.091Z,101612.95
2017-10-24T14:50:58.697Z,101613.61
2017-10-24T14:53:26.349Z,101610.53
2017-10-24T14:55:53.958Z,101613.47
2017-10-24T14:58:21.586Z,101611.05
2017-10-24T15:00:49.186Z,101610.91
2017-10-24T15:03:16.837Z,101610.91
2017-10-24T15:05:44.454Z,101608.62
2017-10-24T15:08:12.079Z,101609.42
2017-10-24T15:10:39.687Z,101614.17
2017-10-24T15:13:07.325Z,101609.98
2017-10-24T15:15:34.907Z,101609.56
2017-10-24T15:18:02.529Z,101614.14
2017-10-24T15:20:30.127Z,101616.59
2017-10-24T15:22:57.856Z,101618.50
2017-10-24T15:25:25.486Z,101620.78
2017-10-24T15:27:53.106Z,101625.77
2017-10-24T15:30:20.750Z,101627.27
2017-10-24T15:32:48.354Z,101628.09
2017-10-24T15:35:15.983Z,101626.60
2017-10-24T15:37:43.572Z,101631.87
2017-10-24T15:40:11.204Z,101633.87
2017-10-24T15:42:38.794Z,101631.59
2017-10-24T15:45:06.436Z,101625.36
2017-10-24T15:47:34.054Z,101629.16
2017-10-24T15:50:01.699Z,101626.32
2017-10-24T15:52:29.317Z,101624.80
2017-10-24T15:54:56.930Z,101627.50
2017-10-24T15:57:24.638Z,101630.75
2017-10-24T15:59:52.239Z,101627.50
2017-10-24T16:02:19.887Z,101633.19
2017-10-24T16:04:47.527Z,101626.42
2017-10-24T16:07:15.167Z,101627.92
2017-10-24T16:09:42.790Z,101626.33
2017-10-24T16:12:10.422Z,101618.22
2017-10-24T16:14:38.019Z,101625.63
2017-10-24T16:17:05.655Z,101625.25
2017-10-24T16:19:33.262Z,101626.19
2017-10-24T16:22:00.899Z,101627.81
2017-10-24T16:24:28.500Z,101625.63
2017-10-24T16:26:56.157Z,101622.80
2017-10-24T16:29:24.026Z,101626.05
2017-10-24T16:31:51.671Z,101629.83
2017-10-24T16:34:19.279Z,101633.22
2017-10-24T16:36:46.926Z,101632.67
2017-10-24T16:39:14.556Z,101641.71
2017-10-24T16:41:42.219Z,101639.42
2017-10-24T16:44:09.839Z,101643.61
2017-10-24T16:46:37.482Z,101645.24
2017-10-24T16:49:05.130Z,101642.67
2017-10-24T16:51:32.892Z,101640.53
2017-10-24T16:54:00.499Z,101645.80
2017-10-24T16:56:28.098Z,101646.87
2017-10-24T16:58:55.747Z,101647.94
2017-10-24T17:01:23.364Z,101652.41
2017-10-24T17:03:50.993Z,101651.33
2017-10-24T17:06:18.607Z,101651.33
2017-10-24T17:08:46.251Z,101653.34
2017-10-24T17:11:13.881Z,101659.55
2017-10-24T17:13:41.566Z,101657.67
2017-10-24T17:16:09.191Z,101656.84
2017-10-24T17:18:36.836Z,101664.30
2017-10-24T17:21:04.487Z,101665.92
2017-10-24T17:23:32.115Z,101669.83
2017-10-24T17:25:59.723Z,101672.12
2017-10-24T17:28:27.416Z,101667.66
2017-10-24T17:30:55.017Z,101664.16
2017-10-24T17:33:22.686Z,101665.64
2017-10-24T17:35:50.295Z,101661.73
2017-10-24T17:38:17.909Z,101657.92
2017-10-24T17:40:45.545Z,101660.34
2017-10-24T17:43:13.155Z,101658.20
2017-10-24T17:45:40.806Z,101662.53
2017-10-24T17:48:08.419Z,101657.50
2017-10-24T17:50:36.140Z,101653.45
2017-10-24T17:53:03.742Z,101654.94
2017-10-24T17:55:31.366Z,101655.77
2017-10-24T17:57:58.984Z,101651.72
2017-10-24T18:00:26.617Z,101650.51
2017-10-24T18:02:54.221Z,101652.10
2017-10-24T18:05:23.581Z,101645.34
2017-10-24T18:07:51.200Z,101638.73
2017-10-24T18:10:18.829Z,101641.98
2017-10-24T18:12:46.443Z,101640.36
2017-10-24T18:15:14.086Z,101635.36
2017-10-24T18:17:41.684Z,101641.70
2017-10-24T18:20:09.372Z,101643.34
2017-10-24T18:22:36.996Z,101648.46
2017-10-24T18:25:04.630Z,101644.82
2017-10-24T18:27:32.242Z,101644.41
2017-10-24T18:29:59.920Z,101648.05
2017-10-24T18:32:27.527Z,101638.59
2017-10-24T18:34:55.208Z,101643.05
2017-10-24T18:37:22.849Z,101644.27
2017-10-24T18:39:50.494Z,101639.94
2017-10-24T18:42:18.091Z,101644.13
2017-10-24T18:44:45.740Z,101649.53
2017-10-24T18:47:13.457Z,101636.68
2017-10-24T18:49:41.195Z,101642.50
2017-10-24T18:52:08.867Z,101639.28
2017-10-24T18:54:36.514Z,101639.38
2017-10-24T18:57:04.342Z,101643.72
2017-10-24T18:59:32.646Z,101641.16
2017-10-24T19:02:00.239Z,101644.27
2017-10-24T19:04:27.867Z,101648.19
2017-10-24T19:06:55.535Z,101647.11
2017-10-24T19:09:23.224Z,101650.89
2017-10-24T19:11:50.881Z,101654.80
2017-10-24T19:14:18.491Z,101654.28
2017-10-24T19:16:46.121Z,101653.17
2017-10-24T19:19:13.740Z,101652.93
2017-10-24T19:21:41.372Z,101652.80
2017-10-24T19:24:09.019Z,101653.87
2017-10-24T19:26:36.684Z,101653.59
2017-10-24T19:29:04.304Z,101644.96
2017-10-24T19:31:31.948Z,101653.73
2017-10-24T19:33:59.561Z,101647.53
2017-10-24T19:36:27.217Z,101647.77
2017-10-24T19:38:54.838Z,101653.45
2017-10-24T19:41:22.472Z,101651.72
2017-10-24T19:43:50.074Z,101647.66
2017-10-24T19:46:17.728Z,101646.31
2017-10-24T19:48:45.335Z,101649.27
2017-10-24T19:51:12.978Z,101656.57
2017-10-24T19:53:40.600Z,101659.97
2017-10-24T19:56:08.263Z,101657.13
2017-10-24T19:58:35.871Z,101658.72
2017-10-24T20:01:03.538Z,101657.78
2017-10-24T20:03:31.148Z,101659.41
2017-10-24T20:05:58.792Z,101657.37
2017-10-24T20:08:26.394Z,101658.30
2017-10-24T20:10:54.049Z,101657.09
2017-10-24T20:13:21.665Z,101651.82
2017-10-24T20:15:49.322Z,101651.03
2017-10-24T20:18:16.926Z,101646.83
2017-10-24T20:20:44.551Z,101656.81
2017-10-24T20:23:12.348Z,101658.06
2017-10-24T20:25:39.982Z,101653.17
2017-10-24T20:28:07.594Z,101651.82
2017-10-24T20:30:35.217Z,101653.03
2017-10-24T20:33:02.847Z,101650.75
2017-10-24T20:35:30.443Z,101653.86
2017-10-24T20:37:58.101Z,101658.58
2017-10-24T20:40:25.754Z,101654.94
2017-10-24T20:42:53.387Z,101656.67
2017-10-24T20:45:21.166Z,101657.22
2017-10-24T20:47:48.963Z,101653.96
2017-10-24T20:50:16.557Z,101645.85
2017-10-24T20:52:44.194Z,101645.30
2017-10-24T20:55:11.779Z,101653.13
2017-10-24T20:57:39.496Z,101645.16
2017-10-24T21:00:07.107Z,101650.56
2017-10-24T21:02:34.749Z,101652.20
2017-10-24T21:05:02.335Z,101653.83
2017-10-24T21:07:29.985Z,101651.95
2017-10-24T21:09:57.594Z,101646.64
2017-10-24T21:12:25.240Z,101654.37
2017-10-24T21:14:52.835Z,101656.66
2017-10-24T21:17:20.450Z,101666.40
2017-10-24T21:19:48.070Z,101662.73
2017-10-24T21:22:15.671Z,101661.80
2017-10-24T21:24:43.302Z,101660.30
2017-10-24T21:27:10.908Z,101657.08
2017-10-24T21:29:38.551Z,101664.64
2017-10-24T21:32:06.164Z,101658.29
2017-10-24T21:34:33.798Z,101660.72
2017-10-24T21:37:01.407Z,101654.09
2017-10-24T21:39:29.061Z,101654.23
2017-10-24T21:41:56.651Z,101655.45
2017-10-24T21:44:24.290Z,101653.69
2017-10-24T21:46:51.890Z,101650.45
2017-10-24T21:49:19.526Z,101651.26
2017-10-24T21:51:47.123Z,101652.20
2017-10-24T21:54:14.749Z,101649.91
2017-10-24T21:56:42.378Z,101649.25
2017-10-24T21:59:10.048Z,101640.86
2017-10-24T22:01:37.646Z,101639.64
2017-10-24T22:04:05.309Z,101637.47
2017-10-24T22:06:32.948Z,101644.91
2017-10-24T22:09:00.630Z,101653.55
2017-10-24T22:11:28.276Z,101654.23
2017-10-24T22:13:56.031Z,101645.44
2017-10-24T22:16:23.712Z,101639.75
2017-10-24T22:18:51.318Z,101631.64
2017-10-24T22:21:18.954Z,101631.78
2017-10-24T22:23:46.582Z,101627.30
2017-10-24T22:26:14.190Z,101627.86
2017-10-24T22:28:41.807Z,101617.73
2017-10-24T22:31:09.407Z,101616.77
2017-10-24T22:33:37.039Z,101610.55
2017-10-24T22:36:04.638Z,101608.78
2017-10-24T22:38:32.307Z,101610.69
2017-10-24T22:40:59.906Z,101610.80
2017-10-24T22:43:27.531Z,101605.14
2017-10-24T22:45:55.151Z,101609.48
2017-10-24T22:48:22.927Z,101608.93
2017-10-24T22:50:50.708Z,101610.55
2017-10-24T22:53:18.451Z,101611.08
2017-10-24T22:55:46.211Z,101602.73
2017-10-24T22:58:13.855Z,101598.39
2017-10-24T23:00:41.536Z,101600.16
2017-10-24T23:03:09.186Z,101597.32
2017-10-24T23:05:36.955Z,101600.67
2017-10-24T23:08:04.610Z,101604.32
2017-10-24T23:10:32.349Z,101598.67
2017-10-24T23:13:00.072Z,101602.58
2017-10-24T23:15:27.875Z,101601.62
2017-10-24T23:17:55.513Z,101602.58
2017-10-24T23:20:23.331Z,101597.17
2017-10-24T23:22:51.002Z,101600.40
2017-10-24T23:25:18.737Z,101608.38
2017-10-24T23:27:46.345Z,101605.56
2017-10-24T23:30:13.952Z,101610.42
2017-10-24T23:32:41.578Z,101605.80
2017-10-24T23:35:09.208Z,101610.55
2017-10-24T23:37:36.818Z,101603.66
2017-10-24T23:40:04.671Z,101608.78
2017-10-24T23:42:32.311Z,101605.66
2017-10-24T23:44:59.973Z,101603.66
2017-10-24T23:47:27.593Z,101604.08
2017-10-24T23:49:55.193Z,101599.46
2017-10-24T23:52:22.866Z,101599.98
2017-10-24T23:54:50.457Z,101602.30
2017-10-24T23:57:18.094Z,101596.98
2017-10-24T23:59:45.686Z,101599.97
